createdAt,value
2019-06-20T00:02:00.445Z,73.53
2019-06-20T00:04:28.870Z,73.84
2019-06-20T00:06:57.299Z,74.84
2019-06-20T00:09:25.708Z,74.68
2019-06-20T00:11:54.161Z,75.33
2019-06-20T00:14:22.595Z,75.07
2019-06-20T00:16:51.032Z,74.57
2019-06-20T00:19:19.449Z,73.81
2019-06-20T00:21:47.901Z,74.16
2019-06-20T00:24:16.315Z,73.96
2019-06-20T00:26:44.765Z,74.46
2019-06-20T00:29:13.181Z,73.97
2019-06-20T00:31:41.627Z,74.23
2019-06-20T00:34:10.044Z,74.85
2019-06-20T00:36:38.468Z,74.78
2019-06-20T00:39:08.209Z,74.92
2019-06-20T00:41:36.986Z,75.22
2019-06-20T00:44:08.730Z,75.39
2019-06-20T00:46:37.143Z,74.74
2019-06-20T00:49:05.576Z,74.74
2019-06-20T00:51:34.069Z,75.27
2019-06-20T00:54:02.599Z,75.01
2019-06-20T00:56:31.099Z,76.38
2019-06-20T00:58:59.532Z,75.11
2019-06-20T01:01:27.964Z,75.81
2019-06-20T01:03:56.405Z,75.22
2019-06-20T01:06:24.853Z,74.95
2019-06-20T01:08:53.298Z,74.43
2019-06-20T01:11:21.734Z,75.49
2019-06-20T01:13:52.809Z,76.00
2019-06-20T01:16:20.377Z,76.10
2019-06-20T01:18:48.825Z,75.83
2019-06-20T01:21:17.333Z,76.83
2019-06-20T01:23:45.753Z,77.38
2019-06-20T01:26:14.171Z,76.42
2019-06-20T01:28:42.702Z,75.97
2019-06-20T01:31:11.112Z,76.32
2019-06-20T01:33:39.570Z,77.67
2019-06-20T01:36:07.976Z,76.85
2019-06-20T01:38:36.419Z,76.95
2019-06-20T01:41:06.156Z,76.54
2019-06-20T01:43:49.505Z,76.63
2019-06-20T01:46:05.175Z,76.31
2019-06-20T01:48:33.625Z,76.36
2019-06-20T01:51:02.131Z,76.36
2019-06-20T01:53:30.592Z,74.96
2019-06-20T01:55:59.020Z,75.29
2019-06-20T01:58:27.480Z,75.87
2019-06-20T02:00:56.072Z,76.35
2019-06-20T02:03:24.503Z,76.07
2019-06-20T02:05:52.980Z,75.49
2019-06-20T02:08:21.419Z,75.76
2019-06-20T02:10:49.980Z,76.61
2019-06-20T02:13:18.423Z,75.70
2019-06-20T02:15:46.878Z,75.49
2019-06-20T02:18:15.438Z,75.74
2019-06-20T02:20:52.394Z,74.38
2019-06-20T02:23:22.061Z,74.66
2019-06-20T02:25:50.642Z,73.87
2019-06-20T02:28:19.092Z,74.15
2019-06-20T02:30:48.680Z,74.21
2019-06-20T02:33:17.275Z,74.96
2019-06-20T02:35:45.717Z,75.09
2019-06-20T02:38:14.182Z,75.50
2019-06-20T02:40:42.722Z,74.54
2019-06-20T02:43:11.156Z,74.61
2019-06-20T02:45:39.730Z,73.89
2019-06-20T02:48:08.307Z,74.10
2019-06-20T02:50:36.894Z,75.36
2019-06-20T02:53:06.065Z,74.75
2019-06-20T02:55:34.656Z,75.33
2019-06-20T02:58:03.091Z,75.43
2019-06-20T03:00:37.288Z,74.94
2019-06-20T03:03:05.667Z,75.78
2019-06-20T03:05:34.112Z,75.71
2019-06-20T03:08:02.546Z,75.46
2019-06-20T03:10:30.977Z,76.06
2019-06-20T03:12:59.421Z,76.62
2019-06-20T03:15:27.856Z,75.21
2019-06-20T03:17:56.284Z,75.72
2019-06-20T03:20:24.726Z,76.03
2019-06-20T03:22:53.172Z,77.39
2019-06-20T03:25:21.723Z,76.57
2019-06-20T03:27:50.140Z,75.32
2019-06-20T03:30:18.658Z,74.62
2019-06-20T03:32:47.101Z,74.91
2019-06-20T03:35:15.614Z,76.23
2019-06-20T03:37:44.050Z,76.35
2019-06-20T03:40:12.767Z,75.98
2019-06-20T03:42:41.195Z,76.36
2019-06-20T03:45:09.715Z,76.11
2019-06-20T03:47:38.138Z,75.76
2019-06-20T03:50:07.516Z,75.27
2019-06-20T03:52:35.967Z,75.34
2019-06-20T03:55:06.506Z,75.17
2019-06-20T03:57:34.953Z,75.38
2019-06-20T04:00:05.068Z,74.94
2019-06-20T04:02:33.509Z,75.96
2019-06-20T04:05:01.928Z,76.63
2019-06-20T04:07:30.414Z,76.21
2019-06-20T04:09:58.816Z,75.80
2019-06-20T04:12:27.309Z,75.67
2019-06-20T04:14:55.747Z,75.05
2019-06-20T04:17:24.174Z,75.31
2019-06-20T04:19:52.606Z,74.67
2019-06-20T04:22:21.058Z,72.88
2019-06-20T04:24:49.503Z,72.43
2019-06-20T04:27:17.918Z,72.49
2019-06-20T04:29:46.399Z,70.74
2019-06-20T04:32:14.817Z,70.85
2019-06-20T04:34:43.242Z,70.27
2019-06-20T04:37:12.981Z,69.26
2019-06-20T04:39:41.403Z,67.26
2019-06-20T04:42:09.844Z,68.78
2019-06-20T04:44:38.354Z,68.08
2019-06-20T04:47:08.444Z,69.37
2019-06-20T04:49:36.876Z,69.33
2019-06-20T04:52:05.408Z,68.83
2019-06-20T04:54:33.818Z,69.09
2019-06-20T04:57:02.274Z,71.08
2019-06-20T04:59:30.713Z,70.13
2019-06-20T05:01:59.153Z,68.81
2019-06-20T05:04:27.585Z,69.16
2019-06-20T05:07:04.951Z,69.77
2019-06-20T05:09:33.383Z,70.78
2019-06-20T05:12:01.847Z,70.89
2019-06-20T05:14:30.314Z,70.76
2019-06-20T05:16:58.742Z,70.64
2019-06-20T05:19:27.171Z,70.22
2019-06-20T05:21:55.594Z,70.52
2019-06-20T05:24:25.654Z,70.18
2019-06-20T05:26:54.155Z,70.92
2019-06-20T05:29:22.587Z,70.07
2019-06-20T05:31:51.024Z,69.92
2019-06-20T05:34:19.468Z,68.74
2019-06-20T05:36:47.983Z,69.17
2019-06-20T05:39:16.433Z,69.04
2019-06-20T05:41:44.885Z,69.34
2019-06-20T05:44:13.306Z,71.10
2019-06-20T05:46:41.741Z,71.14
2019-06-20T05:49:10.175Z,69.75
2019-06-20T05:51:39.835Z,68.95
2019-06-20T05:54:08.423Z,70.19
2019-06-20T05:56:36.923Z,69.67
2019-06-20T05:59:05.408Z,70.41
2019-06-20T06:01:33.824Z,70.32
2019-06-20T06:04:02.263Z,69.52
2019-06-20T06:06:30.681Z,69.76
2019-06-20T06:08:59.141Z,69.45
2019-06-20T06:11:27.567Z,68.65
2019-06-20T06:13:56.251Z,68.06
2019-06-20T06:16:27.317Z,68.44
2019-06-20T06:18:55.088Z,67.42
2019-06-20T06:21:23.507Z,67.07
2019-06-20T06:23:51.971Z,66.29
2019-06-20T06:26:20.403Z,65.95
2019-06-20T06:28:48.840Z,66.40
2019-06-20T06:31:17.265Z,67.25
2019-06-20T06:33:45.701Z,68.33
2019-06-20T06:36:14.154Z,68.23
2019-06-20T06:38:42.657Z,67.16
2019-06-20T06:41:11.088Z,67.31
2019-06-20T06:43:41.923Z,67.06
2019-06-20T06:46:09.695Z,67.21
2019-06-20T06:48:38.135Z,67.64
2019-06-20T06:51:06.626Z,67.89
2019-06-20T06:53:35.087Z,67.69
2019-06-20T06:56:03.561Z,67.46
2019-06-20T06:58:32.037Z,66.42
2019-06-20T07:01:00.475Z,65.96
2019-06-20T07:03:28.893Z,66.93
2019-06-20T07:05:57.334Z,67.21
2019-06-20T07:08:25.756Z,66.25
2019-06-20T07:10:54.195Z,66.71
2019-06-20T07:13:22.805Z,66.46
2019-06-20T07:15:51.202Z,65.84
2019-06-20T07:18:19.640Z,66.31
2019-06-20T07:20:48.061Z,66.15
2019-06-20T07:23:16.690Z,66.29
2019-06-20T07:25:45.265Z,66.42
2019-06-20T07:28:13.679Z,65.40
2019-06-20T07:30:42.136Z,65.50
2019-06-20T07:33:13.540Z,63.93
2019-06-20T07:35:42.110Z,64.16
2019-06-20T07:38:10.573Z,64.29
2019-06-20T07:40:39.057Z,64.78
2019-06-20T07:43:07.450Z,64.66
2019-06-20T07:45:35.951Z,65.20
2019-06-20T07:48:04.909Z,65.60
2019-06-20T07:50:33.350Z,64.81
2019-06-20T07:53:02.870Z,65.09
2019-06-20T07:55:31.598Z,64.87
2019-06-20T07:58:00.024Z,63.65
2019-06-20T08:00:28.599Z,64.12
2019-06-20T08:02:57.122Z,63.98
2019-06-20T08:05:25.689Z,61.55
2019-06-20T08:07:54.119Z,61.71
2019-06-20T08:10:23.262Z,61.97
2019-06-20T08:12:51.669Z,63.18
2019-06-20T08:15:20.939Z,62.98
2019-06-20T08:17:49.412Z,63.69
2019-06-20T08:20:19.424Z,62.84
2019-06-20T08:22:47.859Z,62.78
2019-06-20T08:25:18.968Z,61.35
2019-06-20T08:27:49.005Z,62.38
2019-06-20T08:30:18.395Z,63.52
2019-06-20T08:32:46.833Z,63.72
2019-06-20T08:35:15.489Z,63.48
2019-06-20T08:37:43.992Z,63.09
2019-06-20T08:40:12.776Z,61.57
2019-06-20T08:42:41.234Z,61.01
2019-06-20T08:45:10.497Z,60.53
2019-06-20T08:47:39.730Z,59.56
2019-06-20T08:50:09.080Z,60.58
2019-06-20T08:52:37.516Z,60.31
2019-06-20T08:55:09.505Z,58.55
2019-06-20T08:57:38.032Z,58.08
2019-06-20T09:00:11.864Z,59.36
2019-06-20T09:02:40.303Z,58.43
2019-06-20T09:05:08.975Z,56.92
2019-06-20T09:07:37.552Z,58.47
2019-06-20T09:10:07.220Z,59.65
2019-06-20T09:12:35.829Z,59.06
2019-06-20T09:15:08.981Z,58.33
2019-06-20T09:17:37.454Z,58.88
2019-06-20T09:20:10.440Z,58.83
2019-06-20T09:22:39.019Z,57.73
2019-06-20T09:25:08.605Z,57.77
2019-06-20T09:27:37.637Z,57.72
2019-06-20T09:30:08.048Z,56.23
2019-06-20T09:32:36.700Z,58.10
2019-06-20T09:35:09.774Z,56.70
2019-06-20T09:37:51.765Z,56.27
2019-06-20T09:40:35.395Z,56.91
2019-06-20T09:43:03.909Z,56.76
2019-06-20T09:45:34.313Z,55.13
2019-06-20T09:48:02.870Z,55.63
2019-06-20T09:50:31.351Z,52.79
2019-06-20T09:52:59.848Z,53.66
2019-06-20T09:55:28.269Z,52.89
2019-06-20T09:57:58.365Z,55.72
2019-06-20T10:00:28.716Z,52.20
2019-06-20T10:02:57.814Z,52.21
2019-06-20T10:05:26.671Z,52.39
2019-06-20T10:07:56.470Z,52.05
2019-06-20T10:10:28.499Z,51.56
2019-06-20T10:12:57.483Z,51.52
2019-06-20T10:15:33.781Z,50.54
2019-06-20T10:18:02.287Z,49.32
2019-06-20T10:20:30.762Z,49.63
2019-06-20T10:22:59.297Z,51.96
2019-06-20T10:25:27.786Z,49.55
2019-06-20T10:27:57.671Z,50.00
2019-06-20T10:30:27.096Z,50.54
2019-06-20T10:32:55.524Z,49.81
2019-06-20T10:35:24.089Z,50.43
2019-06-20T10:37:53.046Z,51.40
2019-06-20T10:40:23.598Z,53.69
2019-06-20T10:42:52.998Z,53.71
2019-06-20T10:45:25.243Z,54.67
2019-06-20T10:47:55.885Z,54.10
2019-06-20T10:50:26.402Z,54.76
2019-06-20T10:52:57.473Z,54.65
2019-06-20T10:55:29.371Z,56.21
2019-06-20T10:57:57.972Z,57.37
2019-06-20T11:00:31.330Z,57.13
2019-06-20T11:02:57.542Z,56.39
2019-06-20T11:05:26.037Z,55.09
2019-06-20T11:07:54.506Z,54.98
2019-06-20T11:10:25.064Z,56.50
2019-06-20T11:12:56.056Z,54.26
2019-06-20T11:15:23.894Z,54.42
2019-06-20T11:17:55.345Z,53.85
2019-06-20T11:20:23.952Z,53.77
2019-06-20T11:22:52.445Z,53.48
2019-06-20T11:25:25.192Z,53.35
2019-06-20T11:27:53.596Z,53.34
2019-06-20T11:30:44.787Z,52.52
2019-06-20T11:33:00.974Z,52.77
2019-06-20T11:35:31.648Z,50.45
2019-06-20T11:38:01.433Z,49.57
2019-06-20T11:40:35.382Z,51.18
2019-06-20T11:43:03.528Z,51.66
2019-06-20T11:45:31.959Z,51.77
2019-06-20T11:48:00.377Z,50.81
2019-06-20T11:50:29.362Z,51.97
2019-06-20T11:52:57.781Z,52.40
2019-06-20T11:55:26.208Z,52.46
2019-06-20T11:57:54.632Z,51.71
2019-06-20T12:00:23.369Z,51.84
2019-06-20T12:02:51.804Z,52.15
2019-06-20T12:05:20.480Z,52.12
2019-06-20T12:07:50.055Z,52.84
2019-06-20T12:10:18.985Z,52.95
2019-06-20T12:12:48.970Z,53.06
2019-06-20T12:15:19.565Z,53.89
2019-06-20T12:17:49.360Z,53.13
2019-06-20T12:20:18.391Z,53.28
2019-06-20T12:22:46.867Z,54.28
2019-06-20T12:25:15.828Z,54.47
2019-06-20T12:27:45.410Z,54.32
2019-06-20T12:30:15.936Z,54.23
2019-06-20T12:32:44.724Z,54.64
2019-06-20T12:35:14.616Z,55.48
2019-06-20T12:37:43.069Z,56.08
2019-06-20T12:40:12.565Z,54.61
2019-06-20T12:42:42.791Z,55.38
2019-06-20T12:45:13.105Z,57.14
2019-06-20T12:47:41.909Z,56.83
2019-06-20T12:50:11.285Z,55.90
2019-06-20T12:52:41.276Z,56.74
2019-06-20T12:55:11.136Z,57.45
2019-06-20T12:57:40.431Z,58.05
2019-06-20T13:00:11.317Z,57.47
2019-06-20T13:02:40.448Z,54.80
2019-06-20T13:05:10.059Z,55.34
2019-06-20T13:07:39.240Z,57.40
2019-06-20T13:10:08.873Z,60.64
2019-06-20T13:12:37.298Z,63.75
2019-06-20T13:15:06.262Z,64.87
2019-06-20T13:17:34.778Z,67.32
2019-06-20T13:20:04.473Z,67.71
2019-06-20T13:22:32.888Z,67.21
2019-06-20T13:25:01.286Z,67.52
2019-06-20T13:27:29.722Z,67.73
2019-06-20T13:29:58.134Z,67.82
2019-06-20T13:32:26.565Z,67.95
2019-06-20T13:34:54.991Z,68.58
2019-06-20T13:37:23.438Z,68.55
2019-06-20T13:39:51.870Z,67.93
2019-06-20T13:42:20.303Z,65.90
2019-06-20T13:44:48.720Z,68.31
2019-06-20T13:47:17.147Z,65.57
2019-06-20T13:49:45.823Z,65.68
2019-06-20T13:52:14.369Z,65.03
2019-06-20T13:54:43.416Z,62.87
2019-06-20T13:57:13.189Z,61.06
2019-06-20T13:59:41.792Z,61.23
2019-06-20T14:02:10.215Z,60.94
2019-06-20T14:04:41.029Z,59.63
2019-06-20T14:07:08.808Z,60.49
2019-06-20T14:09:38.631Z,62.03
2019-06-20T14:12:07.113Z,61.54
2019-06-20T14:14:35.558Z,61.90
2019-06-20T14:17:03.968Z,63.58
2019-06-20T14:19:32.408Z,63.75
2019-06-20T14:22:00.828Z,61.58
2019-06-20T14:24:29.345Z,61.37
2019-06-20T14:26:58.483Z,60.84
2019-06-20T14:29:26.993Z,62.17
2019-06-20T14:31:55.413Z,60.35
2019-06-20T14:34:23.854Z,59.61
2019-06-20T14:36:53.707Z,59.43
2019-06-20T14:39:22.477Z,58.44
2019-06-20T14:41:51.424Z,56.43
2019-06-20T14:44:20.073Z,56.24
2019-06-20T14:46:48.495Z,56.54
2019-06-20T14:49:16.934Z,55.69
2019-06-20T14:51:46.718Z,56.52
2019-06-20T14:54:15.571Z,55.17
2019-06-20T14:56:44.988Z,55.78
2019-06-20T14:59:14.162Z,54.23
2019-06-20T15:01:44.579Z,56.23
2019-06-20T15:04:12.738Z,54.37
2019-06-20T15:06:41.159Z,53.08
2019-06-20T15:09:09.590Z,54.62
2019-06-20T15:11:38.033Z,53.31
2019-06-20T15:14:06.532Z,53.94
2019-06-20T15:16:34.955Z,53.05
2019-06-20T15:19:03.383Z,53.53
2019-06-20T15:21:31.807Z,53.54
2019-06-20T15:24:00.242Z,54.85
2019-06-20T15:26:28.763Z,54.61
2019-06-20T15:28:57.204Z,55.06
2019-06-20T15:31:25.622Z,54.96
2019-06-20T15:33:55.155Z,56.34
2019-06-20T15:36:23.633Z,55.39
2019-06-20T15:38:53.016Z,55.88
2019-06-20T15:41:21.644Z,54.97
2019-06-20T15:43:51.647Z,54.84
2019-06-20T15:46:20.148Z,55.30
2019-06-20T15:48:48.566Z,56.16
2019-06-20T15:51:16.992Z,55.26
2019-06-20T15:53:45.422Z,55.20
2019-06-20T15:56:13.855Z,55.13
2019-06-20T15:58:42.319Z,54.74
2019-06-20T16:01:10.710Z,55.24
2019-06-20T16:03:39.131Z,55.87
2019-06-20T16:06:07.564Z,54.33
2019-06-20T16:08:35.991Z,53.71
2019-06-20T16:11:04.561Z,54.13
2019-06-20T16:13:32.997Z,55.47
2019-06-20T16:16:01.524Z,54.75
2019-06-20T16:18:29.936Z,54.02
2019-06-20T16:20:58.380Z,55.12
2019-06-20T16:23:26.800Z,55.74
2019-06-20T16:25:55.247Z,56.55
2019-06-20T16:28:23.655Z,56.03
2019-06-20T16:31:07.681Z,56.31
2019-06-20T16:33:25.490Z,56.82
2019-06-20T16:35:52.393Z,55.99
2019-06-20T16:38:20.818Z,56.86
2019-06-20T16:40:49.824Z,56.18
2019-06-20T16:43:18.221Z,56.09
2019-06-20T16:45:46.646Z,55.98
2019-06-20T16:48:15.068Z,56.07
2019-06-20T16:50:43.501Z,56.11
2019-06-20T16:53:11.988Z,56.34
2019-06-20T16:55:40.502Z,56.48
2019-06-20T16:58:09.046Z,54.91
2019-06-20T17:00:37.610Z,56.10
2019-06-20T17:03:06.568Z,56.04
2019-06-20T17:05:35.169Z,56.35
2019-06-20T17:08:04.363Z,56.97
2019-06-20T17:10:32.782Z,56.71
2019-06-20T17:13:01.217Z,57.23
2019-06-20T17:15:29.685Z,57.10
2019-06-20T17:17:58.111Z,58.04
2019-06-20T17:20:26.704Z,57.12
2019-06-20T17:22:55.129Z,57.22
2019-06-20T17:25:23.784Z,57.99
2019-06-20T17:27:52.239Z,58.47
2019-06-20T17:30:21.987Z,65.73
2019-06-20T17:32:50.595Z,72.05
2019-06-20T17:35:19.762Z,73.09
2019-06-20T17:37:48.205Z,77.31
2019-06-20T17:40:17.901Z,80.15
2019-06-20T17:42:46.465Z,78.04
2019-06-20T17:45:15.435Z,81.79
2019-06-20T17:47:43.860Z,80.15
2019-06-20T17:50:14.080Z,79.88
2019-06-20T17:52:42.509Z,78.00
2019-06-20T17:55:12.742Z,80.82
2019-06-20T17:57:41.178Z,80.44
2019-06-20T18:00:17.794Z,79.13
2019-06-20T18:02:46.246Z,77.01
2019-06-20T18:05:16.314Z,76.82
2019-06-20T18:07:44.821Z,77.11
2019-06-20T18:10:14.178Z,76.96
2019-06-20T18:12:42.623Z,78.09
2019-06-20T18:15:13.052Z,77.19
2019-06-20T18:17:41.565Z,74.19
2019-06-20T18:20:12.633Z,75.68
2019-06-20T18:22:41.068Z,73.38
2019-06-20T18:25:10.338Z,73.97
2019-06-20T18:27:38.845Z,74.93
2019-06-20T18:30:09.021Z,75.72
2019-06-20T18:32:37.440Z,75.41
2019-06-20T18:35:08.508Z,75.74
2019-06-20T18:37:36.955Z,75.94
2019-06-20T18:40:13.257Z,76.97
2019-06-20T18:42:41.705Z,75.75
2019-06-20T18:45:11.144Z,76.08
2019-06-20T18:47:39.573Z,76.21
2019-06-20T18:50:08.237Z,74.17
2019-06-20T18:52:51.075Z,75.29
2019-06-20T18:55:08.433Z,75.07
2019-06-20T18:57:36.864Z,75.27
2019-06-20T19:00:13.126Z,75.66
2019-06-20T19:02:41.605Z,75.78
2019-06-20T19:05:11.277Z,75.01
2019-06-20T19:07:39.707Z,74.83
2019-06-20T19:10:09.085Z,75.96
2019-06-20T19:12:37.656Z,75.42
2019-06-20T19:15:08.542Z,74.86
2019-06-20T19:17:37.108Z,74.27
2019-06-20T19:20:07.363Z,74.64
2019-06-20T19:22:35.790Z,75.80
2019-06-20T19:25:08.904Z,75.12
2019-06-20T19:27:46.033Z,75.01
2019-06-20T19:30:10.832Z,75.17
2019-06-20T19:32:39.282Z,74.88
2019-06-20T19:35:10.310Z,75.81
2019-06-20T19:37:38.661Z,76.04
2019-06-20T19:40:08.746Z,75.71
2019-06-20T19:42:37.404Z,76.18
2019-06-20T19:45:12.272Z,75.35
2019-06-20T19:47:40.833Z,76.45
2019-06-20T19:50:11.435Z,76.99
2019-06-20T19:52:40.395Z,77.47
2019-06-20T19:55:10.372Z,76.40
2019-06-20T19:57:38.873Z,74.79
2019-06-20T20:00:08.549Z,76.11
2019-06-20T20:02:37.152Z,74.93
2019-06-20T20:05:19.020Z,73.94
2019-06-20T20:07:39.278Z,73.66
2019-06-20T20:10:09.155Z,73.12
2019-06-20T20:12:37.584Z,73.33
2019-06-20T20:15:09.378Z,73.50
2019-06-20T20:17:37.809Z,73.04
2019-06-20T20:20:09.291Z,74.63
2019-06-20T20:22:37.714Z,74.08
2019-06-20T20:25:07.315Z,74.94
2019-06-20T20:27:35.726Z,75.45
2019-06-20T20:30:07.152Z,74.37
2019-06-20T20:32:35.566Z,72.61
2019-06-20T20:35:04.461Z,73.43
2019-06-20T20:37:32.895Z,72.78
2019-06-20T20:40:01.329Z,71.87
2019-06-20T20:42:29.747Z,70.73
2019-06-20T20:44:58.190Z,71.90
2019-06-20T20:47:28.471Z,71.42
2019-06-20T20:49:56.785Z,71.92
2019-06-20T20:52:25.221Z,71.47
2019-06-20T20:54:53.652Z,70.33
2019-06-20T20:57:22.084Z,69.61
2019-06-20T20:59:50.518Z,70.21
2019-06-20T21:02:18.952Z,70.31
2019-06-20T21:04:48.829Z,70.57
2019-06-20T21:07:17.289Z,72.19
2019-06-20T21:09:45.720Z,71.54
2019-06-20T21:12:39.525Z,72.85
2019-06-20T21:15:08.530Z,71.87
2019-06-20T21:17:36.966Z,70.58
2019-06-20T21:20:07.297Z,70.22
2019-06-20T21:22:35.755Z,69.64
2019-06-20T21:25:05.515Z,69.42
2019-06-20T21:27:33.953Z,69.54
2019-06-20T21:30:02.435Z,68.91
2019-06-20T21:32:30.869Z,68.73
2019-06-20T21:34:59.366Z,68.61
2019-06-20T21:37:27.877Z,69.03
2019-06-20T21:39:56.373Z,69.74
2019-06-20T21:42:24.820Z,70.53
2019-06-20T21:44:53.260Z,70.26
2019-06-20T21:47:21.693Z,69.82
2019-06-20T21:49:50.183Z,69.81
2019-06-20T21:52:18.734Z,69.26
2019-06-20T21:54:47.155Z,68.54
2019-06-20T21:57:15.587Z,68.54
2019-06-20T21:59:44.003Z,68.34
2019-06-20T22:02:12.542Z,67.67
2019-06-20T22:04:53.712Z,68.45
2019-06-20T22:07:11.125Z,68.17
2019-06-20T22:09:39.584Z,68.56
2019-06-20T22:12:08.015Z,68.32
2019-06-20T22:14:36.435Z,68.32
2019-06-20T22:17:04.892Z,69.26
2019-06-20T22:19:33.308Z,69.03
2019-06-20T22:22:01.784Z,68.38
2019-06-20T22:24:30.196Z,69.66
2019-06-20T22:26:58.647Z,69.97
2019-06-20T22:29:27.141Z,69.46
2019-06-20T22:31:55.660Z,68.83
2019-06-20T22:34:24.086Z,69.73
2019-06-20T22:36:52.527Z,71.27
2019-06-20T22:39:20.947Z,70.29
2019-06-20T22:41:49.386Z,70.38
2019-06-20T22:44:17.835Z,69.72
2019-06-20T22:46:46.262Z,69.13
2019-06-20T22:49:14.706Z,68.91
2019-06-20T22:51:43.156Z,70.68
2019-06-20T22:54:11.609Z,70.76
2019-06-20T22:56:40.022Z,69.90
2019-06-20T22:59:08.457Z,70.99
2019-06-20T23:01:36.879Z,72.16
2019-06-20T23:04:05.385Z,70.99
2019-06-20T23:06:33.824Z,72.03
2019-06-20T23:09:02.330Z,70.90
2019-06-20T23:11:30.759Z,70.46
2019-06-20T23:13:59.192Z,70.98
2019-06-20T23:16:27.617Z,71.26
2019-06-20T23:18:56.064Z,70.62
2019-06-20T23:21:24.488Z,70.17
2019-06-20T23:23:52.933Z,70.03
2019-06-20T23:26:21.362Z,69.86
2019-06-20T23:28:51.436Z,71.24
2019-06-20T23:31:19.886Z,71.27
2019-06-20T23:33:48.316Z,70.94
2019-06-20T23:36:16.734Z,70.68
2019-06-20T23:38:45.166Z,71.17
2019-06-20T23:41:13.598Z,71.32
2019-06-20T23:43:42.052Z,70.63
2019-06-20T23:46:10.488Z,69.75
2019-06-20T23:48:38.935Z,69.49
2019-06-20T23:51:07.347Z,71.06
2019-06-20T23:53:35.797Z,71.41
2019-06-20T23:56:07.858Z,71.44
2019-06-20T23:58:34.422Z,71.49
